sensor_id;sensor_type;location;lat;lon;timestamp;P1;P2;P0
76304;PMS7003;65111;50.536;19.204;2022-12-29T00:01:37;3.00;3.00;2.00
76304;PMS7003;65111;50.536;19.204;2022-12-29T00:06:30;4.00;4.00;3.00
76304;PMS7003;65111;50.536;19.204;2022-12-29T00:08:56;3.50;3.50;3.00
76304;PMS7003;65111;50.536;19.204;2022-12-29T00:11:24;6.00;4.00;3.00
76304;PMS7003;65111;50.536;19.204;2022-12-29T00:13:51;3.00;3.00;1.00
76304;PMS7003;65111;50.536;19.204;2022-12-29T00:16:38;1.00;1.00;1.00
76304;PMS7003;65111;50.536;19.204;2022-12-29T00:19:07;4.00;3.00;1.00
76304;PMS7003;65111;50.536;19.204;2022-12-29T00:21:54;7.00;3.00;3.00
76304;PMS7003;65111;50.536;19.204;2022-12-29T00:24:46;6.00;6.00;4.00
76304;PMS7003;65111;50.536;19.204;2022-12-29T00:27:31;8.00;5.00;3.50
76304;PMS7003;65111;50.536;19.204;2022-12-29T00:30:18;10.00;4.00;3.00
76304;PMS7003;65111;50.536;19.204;2022-12-29T00:36:21;5.00;5.00;3.50
76304;PMS7003;65111;50.536;19.204;2022-12-29T00:38:55;3.00;3.00;2.00
76304;PMS7003;65111;50.536;19.204;2022-12-29T00:41:45;3.00;3.00;1.00
76304;PMS7003;65111;50.536;19.204;2022-12-29T00:44:29;11.00;9.00;6.00
76304;PMS7003;65111;50.536;19.204;2022-12-29T00:46:55;6.00;3.00;3.00
76304;PMS7003;65111;50.536;19.204;2022-12-29T00:49:21;4.00;4.00;3.00
76304;PMS7003;65111;50.536;19.204;2022-12-29T00:52:01;6.00;6.00;4.00
76304;PMS7003;65111;50.536;19.204;2022-12-29T00:54:33;9.50;7.50;3.50
76304;PMS7003;65111;50.536;19.204;2022-12-29T00:57:01;10.00;7.00;5.00
76304;PMS7003;65111;50.536;19.204;2022-12-29T00:59:27;9.00;6.00;6.00
76304;PMS7003;65111;50.536;19.204;2022-12-29T01:01:54;12.00;10.00;6.00
76304;PMS7003;65111;50.536;19.204;2022-12-29T01:04:21;10.00;6.00;4.00
76304;PMS7003;65111;50.536;19.204;2022-12-29T01:06:49;9.50;8.00;6.00
76304;PMS7003;65111;50.536;19.204;2022-12-29T01:09:16;7.00;7.00;6.00
76304;PMS7003;65111;50.536;19.204;2022-12-29T01:12:01;9.50;7.00;6.00
76304;PMS7003;65111;50.536;19.204;2022-12-29T01:16:54;9.00;4.00;4.00
76304;PMS7003;65111;50.536;19.204;2022-12-29T01:19:21;6.00;4.00;3.00
76304;PMS7003;65111;50.536;19.204;2022-12-29T01:21:48;9.00;7.00;6.00
76304;PMS7003;65111;50.536;19.204;2022-12-29T01:24:15;6.50;3.50;3.50
76304;PMS7003;65111;50.536;19.204;2022-12-29T01:26:42;4.00;4.00;4.00
76304;PMS7003;65111;50.536;19.204;2022-12-29T01:29:08;15.00;7.00;4.00
76304;PMS7003;65111;50.536;19.204;2022-12-29T01:31:34;4.00;4.00;4.00
76304;PMS7003;65111;50.536;19.204;2022-12-29T01:34:01;26.00;22.00;15.00
76304;PMS7003;65111;50.536;19.204;2022-12-29T01:36:27;9.00;9.00;6.00
76304;PMS7003;65111;50.536;19.204;2022-12-29T01:38:53;8.00;7.00;6.00
76304;PMS7003;65111;50.536;19.204;2022-12-29T01:41:19;9.50;9.50;6.00
76304;PMS7003;65111;50.536;19.204;2022-12-29T01:51:35;4.00;4.00;3.00
76304;PMS7003;65111;50.536;19.204;2022-12-29T01:54:10;6.00;6.00;3.50
76304;PMS7003;65111;50.536;19.204;2022-12-29T01:56:42;12.00;10.00;6.00
76304;PMS7003;65111;50.536;19.204;2022-12-29T01:59:10;7.00;6.00;4.00
76304;PMS7003;65111;50.536;19.204;2022-12-29T02:01:40;6.00;4.00;4.00
76304;PMS7003;65111;50.536;19.204;2022-12-29T02:04:08;6.00;6.00;3.00
76304;PMS7003;65111;50.536;19.204;2022-12-29T02:09:23;6.00;4.00;4.00
76304;PMS7003;65111;50.536;19.204;2022-12-29T02:11:50;9.00;7.00;6.00
76304;PMS7003;65111;50.536;19.204;2022-12-29T02:14:17;9.00;7.00;6.00
76304;PMS7003;65111;50.536;19.204;2022-12-29T02:36:28;3.00;3.00;1.00
76304;PMS7003;65111;50.536;19.204;2022-12-29T02:38:59;9.00;7.00;6.00
76304;PMS7003;65111;50.536;19.204;2022-12-29T02:41:34;7.00;7.00;4.00
76304;PMS7003;65111;50.536;19.204;2022-12-29T02:47:20;7.00;7.00;4.00
76304;PMS7003;65111;50.536;19.204;2022-12-29T02:50:01;7.50;6.00;4.00
76304;PMS7003;65111;50.536;19.204;2022-12-29T02:52:43;10.00;7.00;6.00
76304;PMS7003;65111;50.536;19.204;2022-12-29T02:55:15;6.50;6.00;4.00
76304;PMS7003;65111;50.536;19.204;2022-12-29T02:57:41;6.00;6.00;4.00
76304;PMS7003;65111;50.536;19.204;2022-12-29T03:00:08;5.00;5.00;3.50
76304;PMS7003;65111;50.536;19.204;2022-12-29T03:08:14;1.00;1.00;0.00
76304;PMS7003;65111;50.536;19.204;2022-12-29T03:10:54;4.00;4.00;3.00
76304;PMS7003;65111;50.536;19.204;2022-12-29T03:13:28;10.50;7.00;5.00
76304;PMS7003;65111;50.536;19.204;2022-12-29T03:19:21;7.00;7.00;6.00
76304;PMS7003;65111;50.536;19.204;2022-12-29T03:22:03;4.00;4.00;4.00
76304;PMS7003;65111;50.536;19.204;2022-12-29T03:24:52;7.00;7.00;3.50
76304;PMS7003;65111;50.536;19.204;2022-12-29T03:27:35;12.00;9.00;4.00
76304;PMS7003;65111;50.536;19.204;2022-12-29T03:30:06;4.00;4.00;3.00
76304;PMS7003;65111;50.536;19.204;2022-12-29T03:32:42;4.00;4.00;3.00
76304;PMS7003;65111;50.536;19.204;2022-12-29T03:35:13;6.50;6.50;5.00
76304;PMS7003;65111;50.536;19.204;2022-12-29T03:37:43;0.00;0.00;0.00
76304;PMS7003;65111;50.536;19.204;2022-12-29T03:40:18;6.00;6.00;4.00
76304;PMS7003;65111;50.536;19.204;2022-12-29T03:42:47;5.00;5.00;4.00
76304;PMS7003;65111;50.536;19.204;2022-12-29T03:45:13;3.00;0.00;0.00
76304;PMS7003;65111;50.536;19.204;2022-12-29T03:47:39;7.00;6.00;1.00
76304;PMS7003;65111;50.536;19.204;2022-12-29T03:50:05;4.00;4.00;3.50
76304;PMS7003;65111;50.536;19.204;2022-12-29T03:52:34;7.00;6.00;4.00
76304;PMS7003;65111;50.536;19.204;2022-12-29T03:55:00;6.00;6.00;4.00
76304;PMS7003;65111;50.536;19.204;2022-12-29T03:57:26;3.50;3.50;3.00
76304;PMS7003;65111;50.536;19.204;2022-12-29T03:59:52;4.00;3.00;3.00
76304;PMS7003;65111;50.536;19.204;2022-12-29T04:02:18;3.00;3.00;1.00
76304;PMS7003;65111;50.536;19.204;2022-12-29T04:04:44;10.00;6.00;4.00
76304;PMS7003;65111;50.536;19.204;2022-12-29T04:07:10;5.33;4.00;3.00
76304;PMS7003;65111;50.536;19.204;2022-12-29T04:09:36;10.00;6.00;4.00
76304;PMS7003;65111;50.536;19.204;2022-12-29T04:12:02;9.00;7.00;3.00
76304;PMS7003;65111;50.536;19.204;2022-12-29T04:14:29;6.00;6.00;4.00
76304;PMS7003;65111;50.536;19.204;2022-12-29T04:16:54;3.50;3.00;3.00
76304;PMS7003;65111;50.536;19.204;2022-12-29T04:19:20;7.00;6.00;3.00
76304;PMS7003;65111;50.536;19.204;2022-12-29T04:21:46;10.00;7.00;6.00
76304;PMS7003;65111;50.536;19.204;2022-12-29T04:24:13;7.00;7.00;4.00
76304;PMS7003;65111;50.536;19.204;2022-12-29T04:26:39;1.00;1.00;0.00
76304;PMS7003;65111;50.536;19.204;2022-12-29T04:29:05;4.00;4.00;3.00
76304;PMS7003;65111;50.536;19.204;2022-12-29T04:31:31;6.00;4.00;4.00
76304;PMS7003;65111;50.536;19.204;2022-12-29T04:33:57;7.00;6.00;4.00
76304;PMS7003;65111;50.536;19.204;2022-12-29T04:36:25;4.00;4.00;3.00
76304;PMS7003;65111;50.536;19.204;2022-12-29T04:38:51;9.50;5.00;3.00
76304;PMS7003;65111;50.536;19.204;2022-12-29T04:41:17;8.00;7.00;4.00
76304;PMS7003;65111;50.536;19.204;2022-12-29T04:46:09;8.00;8.00;6.50
76304;PMS7003;65111;50.536;19.204;2022-12-29T04:48:35;6.00;6.00;3.00
76304;PMS7003;65111;50.536;19.204;2022-12-29T04:51:01;4.00;4.00;4.00
76304;PMS7003;65111;50.536;19.204;2022-12-29T04:53:27;6.50;4.00;4.00
76304;PMS7003;65111;50.536;19.204;2022-12-29T04:55:53;16.00;15.00;10.00
76304;PMS7003;65111;50.536;19.204;2022-12-29T04:58:19;13.00;13.00;9.00
76304;PMS7003;65111;50.536;19.204;2022-12-29T05:00:46;11.00;11.00;7.00
76304;PMS7003;65111;50.536;19.204;2022-12-29T05:03:11;10.00;10.00;6.00
76304;PMS7003;65111;50.536;19.204;2022-12-29T05:05:37;4.00;4.00;3.00
76304;PMS7003;65111;50.536;19.204;2022-12-29T05:08:03;6.00;5.00;4.00
76304;PMS7003;65111;50.536;19.204;2022-12-29T05:10:30;4.00;4.00;1.00
76304;PMS7003;65111;50.536;19.204;2022-12-29T05:15:23;6.50;6.00;4.00
76304;PMS7003;65111;50.536;19.204;2022-12-29T05:17:48;8.00;6.00;3.50
76304;PMS7003;65111;50.536;19.204;2022-12-29T05:20:15;12.00;6.00;4.00
76304;PMS7003;65111;50.536;19.204;2022-12-29T05:22:41;6.00;6.00;4.00
76304;PMS7003;65111;50.536;19.204;2022-12-29T05:25:08;3.50;3.50;2.00
76304;PMS7003;65111;50.536;19.204;2022-12-29T05:27:34;9.00;7.00;6.00
76304;PMS7003;65111;50.536;19.204;2022-12-29T05:30:00;7.00;6.00;4.00
76304;PMS7003;65111;50.536;19.204;2022-12-29T05:32:26;6.00;4.67;1.67
76304;PMS7003;65111;50.536;19.204;2022-12-29T05:34:52;3.00;3.00;3.00
76304;PMS7003;65111;50.536;19.204;2022-12-29T05:37:18;4.00;4.00;4.00
76304;PMS7003;65111;50.536;19.204;2022-12-29T05:39:44;4.00;4.00;3.50
76304;PMS7003;65111;50.536;19.204;2022-12-29T05:42:10;5.00;5.00;4.00
76304;PMS7003;65111;50.536;19.204;2022-12-29T05:44:36;6.00;6.00;4.00
76304;PMS7003;65111;50.536;19.204;2022-12-29T05:47:02;7.00;7.00;5.00
76304;PMS7003;65111;50.536;19.204;2022-12-29T05:49:28;6.00;6.00;4.00
76304;PMS7003;65111;50.536;19.204;2022-12-29T05:51:55;10.00;9.00;6.00
76304;PMS7003;65111;50.536;19.204;2022-12-29T05:54:21;6.00;6.00;4.00
76304;PMS7003;65111;50.536;19.204;2022-12-29T05:59:12;9.00;4.00;3.00
76304;PMS7003;65111;50.536;19.204;2022-12-29T06:01:38;6.50;4.00;3.50
76304;PMS7003;65111;50.536;19.204;2022-12-29T06:04:04;6.00;6.00;4.00
76304;PMS7003;65111;50.536;19.204;2022-12-29T06:06:30;7.00;7.00;6.00
76304;PMS7003;65111;50.536;19.204;2022-12-29T06:11:22;15.00;9.00;5.00
76304;PMS7003;65111;50.536;19.204;2022-12-29T06:13:48;12.00;9.00;7.00
76304;PMS7003;65111;50.536;19.204;2022-12-29T06:16:14;4.00;4.00;4.00
76304;PMS7003;65111;50.536;19.204;2022-12-29T06:18:40;5.33;5.33;3.00
76304;PMS7003;65111;50.536;19.204;2022-12-29T06:21:05;12.00;10.00;7.00
76304;PMS7003;65111;50.536;19.204;2022-12-29T06:23:31;8.50;8.00;4.00
76304;PMS7003;65111;50.536;19.204;2022-12-29T06:25:57;7.00;7.00;6.00
76304;PMS7003;65111;50.536;19.204;2022-12-29T06:28:24;10.00;9.00;6.00
76304;PMS7003;65111;50.536;19.204;2022-12-29T06:30:50;6.00;3.00;0.00
76304;PMS7003;65111;50.536;19.204;2022-12-29T06:33:16;7.00;7.00;4.00
76304;PMS7003;65111;50.536;19.204;2022-12-29T06:35:42;9.50;7.00;6.00
76304;PMS7003;65111;50.536;19.204;2022-12-29T06:38:09;6.00;6.00;4.00
76304;PMS7003;65111;50.536;19.204;2022-12-29T06:40:35;7.00;7.00;6.00
76304;PMS7003;65111;50.536;19.204;2022-12-29T06:43:01;13.00;6.00;6.00
76304;PMS7003;65111;50.536;19.204;2022-12-29T06:45:27;10.00;9.00;6.00
76304;PMS7003;65111;50.536;19.204;2022-12-29T06:47:52;9.00;9.00;6.50
76304;PMS7003;65111;50.536;19.204;2022-12-29T06:50:19;21.00;13.00;9.00
76304;PMS7003;65111;50.536;19.204;2022-12-29T06:52:45;13.00;10.00;7.00
76304;PMS7003;65111;50.536;19.204;2022-12-29T06:55:11;12.50;11.00;8.00
76304;PMS7003;65111;50.536;19.204;2022-12-29T06:57:37;22.00;18.00;10.00
76304;PMS7003;65111;50.536;19.204;2022-12-29T07:02:30;12.50;10.00;7.00
76304;PMS7003;65111;50.536;19.204;2022-12-29T07:04:56;10.00;9.00;6.00
76304;PMS7003;65111;50.536;19.204;2022-12-29T07:07:22;9.00;9.00;6.00
76304;PMS7003;65111;50.536;19.204;2022-12-29T07:09:48;12.50;10.00;7.00
76304;PMS7003;65111;50.536;19.204;2022-12-29T07:12:14;10.00;10.00;7.00
76304;PMS7003;65111;50.536;19.204;2022-12-29T07:14:40;11.00;10.00;7.00
76304;PMS7003;65111;50.536;19.204;2022-12-29T07:17:06;12.00;10.00;6.00
76304;PMS7003;65111;50.536;19.204;2022-12-29T07:19:32;12.50;11.00;7.00
76304;PMS7003;65111;50.536;19.204;2022-12-29T07:21:59;12.00;12.00;9.00
76304;PMS7003;65111;50.536;19.204;2022-12-29T07:24:25;12.00;9.50;8.00
76304;PMS7003;65111;50.536;19.204;2022-12-29T07:26:51;10.50;9.00;6.50
76304;PMS7003;65111;50.536;19.204;2022-12-29T07:29:17;15.00;9.00;6.00
76304;PMS7003;65111;50.536;19.204;2022-12-29T07:34:09;14.00;11.50;9.50
76304;PMS7003;65111;50.536;19.204;2022-12-29T07:36:36;12.00;10.00;7.00
76304;PMS7003;65111;50.536;19.204;2022-12-29T07:39:02;10.00;10.00;7.00
76304;PMS7003;65111;50.536;19.204;2022-12-29T07:41:28;10.00;7.00;4.00
76304;PMS7003;65111;50.536;19.204;2022-12-29T07:43:55;15.00;12.00;9.00
76304;PMS7003;65111;50.536;19.204;2022-12-29T07:46:21;13.00;12.00;9.00
76304;PMS7003;65111;50.536;19.204;2022-12-29T07:48:47;11.00;10.00;7.00
76304;PMS7003;65111;50.536;19.204;2022-12-29T07:53:39;11.33;9.33;7.00
76304;PMS7003;65111;50.536;19.204;2022-12-29T07:56:05;13.00;9.00;7.00
76304;PMS7003;65111;50.536;19.204;2022-12-29T07:58:31;19.00;12.50;9.50
76304;PMS7003;65111;50.536;19.204;2022-12-29T08:00:58;15.00;11.00;9.00
76304;PMS7003;65111;50.536;19.204;2022-12-29T08:03:24;12.50;12.00;9.00
76304;PMS7003;65111;50.536;19.204;2022-12-29T08:05:51;15.00;12.00;7.00
76304;PMS7003;65111;50.536;19.204;2022-12-29T08:08:17;13.00;12.00;9.00
76304;PMS7003;65111;50.536;19.204;2022-12-29T08:10:43;6.00;6.00;3.00
76304;PMS7003;65111;50.536;19.204;2022-12-29T08:13:09;15.00;11.00;7.00
76304;PMS7003;65111;50.536;19.204;2022-12-29T08:15:36;9.00;9.00;6.00
76304;PMS7003;65111;50.536;19.204;2022-12-29T08:18:03;12.00;10.00;7.00
76304;PMS7003;65111;50.536;19.204;2022-12-29T08:20:29;10.00;9.00;7.00
76304;PMS7003;65111;50.536;19.204;2022-12-29T08:22:56;13.50;10.50;9.00
76304;PMS7003;65111;50.536;19.204;2022-12-29T08:25:22;13.00;13.00;7.00
76304;PMS7003;65111;50.536;19.204;2022-12-29T08:30:14;17.67;12.33;9.33
76304;PMS7003;65111;50.536;19.204;2022-12-29T08:32:41;14.00;12.00;10.00
76304;PMS7003;65111;50.536;19.204;2022-12-29T08:35:08;14.00;11.50;9.00
76304;PMS7003;65111;50.536;19.204;2022-12-29T08:37:34;15.00;13.00;10.00
76304;PMS7003;65111;50.536;19.204;2022-12-29T08:40:00;12.50;11.50;7.00
76304;PMS7003;65111;50.536;19.204;2022-12-29T08:42:29;12.00;10.00;8.00
76304;PMS7003;65111;50.536;19.204;2022-12-29T08:44:59;10.50;10.50;9.00
76304;PMS7003;65111;50.536;19.204;2022-12-29T08:47:26;11.00;9.00;6.00
76304;PMS7003;65111;50.536;19.204;2022-12-29T08:49:52;11.00;10.00;7.00
76304;PMS7003;65111;50.536;19.204;2022-12-29T08:52:18;10.00;10.00;7.00
76304;PMS7003;65111;50.536;19.204;2022-12-29T08:54:44;11.00;11.00;8.33
76304;PMS7003;65111;50.536;19.204;2022-12-29T08:57:11;14.67;12.00;7.67
76304;PMS7003;65111;50.536;19.204;2022-12-29T08:59:37;8.00;7.00;6.00
76304;PMS7003;65111;50.536;19.204;2022-12-29T09:02:03;8.50;8.00;5.00
76304;PMS7003;65111;50.536;19.204;2022-12-29T09:04:29;9.00;6.00;4.00
76304;PMS7003;65111;50.536;19.204;2022-12-29T09:06:55;10.00;9.00;6.00
76304;PMS7003;65111;50.536;19.204;2022-12-29T09:09:20;14.50;12.50;7.50
76304;PMS7003;65111;50.536;19.204;2022-12-29T09:11:47;16.00;11.00;7.00
76304;PMS7003;65111;50.536;19.204;2022-12-29T09:14:13;11.00;9.00;7.00
76304;PMS7003;65111;50.536;19.204;2022-12-29T09:16:39;15.00;11.00;6.00
76304;PMS7003;65111;50.536;19.204;2022-12-29T09:19:24;10.00;8.00;5.00
76304;PMS7003;65111;50.536;19.204;2022-12-29T09:21:50;13.00;10.00;7.50
76304;PMS7003;65111;50.536;19.204;2022-12-29T09:24:16;10.00;7.00;5.00
76304;PMS7003;65111;50.536;19.204;2022-12-29T09:26:43;10.00;8.00;6.00
76304;PMS7003;65111;50.536;19.204;2022-12-29T09:31:35;12.00;10.00;7.00
76304;PMS7003;65111;50.536;19.204;2022-12-29T09:34:01;11.00;11.00;9.00
76304;PMS7003;65111;50.536;19.204;2022-12-29T09:36:27;8.00;8.00;6.00
76304;PMS7003;65111;50.536;19.204;2022-12-29T09:38:53;12.00;10.00;6.00
76304;PMS7003;65111;50.536;19.204;2022-12-29T09:41:21;8.00;8.00;6.00
76304;PMS7003;65111;50.536;19.204;2022-12-29T09:46:37;11.00;11.00;6.50
76304;PMS7003;65111;50.536;19.204;2022-12-29T09:52:05;7.00;7.00;5.50
76304;PMS7003;65111;50.536;19.204;2022-12-29T09:57:13;10.00;9.00;6.00
76304;PMS7003;65111;50.536;19.204;2022-12-29T09:59:43;9.50;9.00;8.00
76304;PMS7003;65111;50.536;19.204;2022-12-29T10:05:35;11.50;10.00;7.00
76304;PMS7003;65111;50.536;19.204;2022-12-29T10:10:56;10.00;8.00;6.00
76304;PMS7003;65111;50.536;19.204;2022-12-29T10:13:37;0.00;0.00;0.00
76304;PMS7003;65111;50.536;19.204;2022-12-29T10:16:20;9.50;8.00;5.50
76304;PMS7003;65111;50.536;19.204;2022-12-29T10:19:03;7.00;7.00;6.00
76304;PMS7003;65111;50.536;19.204;2022-12-29T10:24:33;8.00;6.00;5.00
76304;PMS7003;65111;50.536;19.204;2022-12-29T10:27:03;9.50;8.00;6.00
76304;PMS7003;65111;50.536;19.204;2022-12-29T10:29:36;10.00;9.00;6.00
76304;PMS7003;65111;50.536;19.204;2022-12-29T10:32:06;8.00;8.00;6.00
76304;PMS7003;65111;50.536;19.204;2022-12-29T10:34:44;12.00;11.00;7.00
76304;PMS7003;65111;50.536;19.204;2022-12-29T10:44:58;10.00;9.00;6.50
76304;PMS7003;65111;50.536;19.204;2022-12-29T10:49:54;7.00;6.00;5.00
76304;PMS7003;65111;50.536;19.204;2022-12-29T10:52:21;8.50;5.50;4.50
76304;PMS7003;65111;50.536;19.204;2022-12-29T10:54:49;13.00;11.50;8.50
76304;PMS7003;65111;50.536;19.204;2022-12-29T11:00:16;9.00;8.00;5.00
76304;PMS7003;65111;50.536;19.204;2022-12-29T11:06:11;10.00;10.00;7.00
76304;PMS7003;65111;50.536;19.204;2022-12-29T11:08:30;9.00;9.00;6.00
76304;PMS7003;65111;50.536;19.204;2022-12-29T11:11:01;9.50;8.50;6.00
76304;PMS7003;65111;50.536;19.204;2022-12-29T11:13:34;9.00;8.00;6.00
76304;PMS7003;65111;50.536;19.204;2022-12-29T11:16:12;10.00;10.00;7.00
76304;PMS7003;65111;50.536;19.204;2022-12-29T11:18:39;9.00;9.00;6.00
76304;PMS7003;65111;50.536;19.204;2022-12-29T11:23:56;6.50;6.50;6.00
76304;PMS7003;65111;50.536;19.204;2022-12-29T11:26:25;6.00;6.00;5.00
76304;PMS7003;65111;50.536;19.204;2022-12-29T11:32:10;10.00;10.00;7.00
76304;PMS7003;65111;50.536;19.204;2022-12-29T11:34:43;9.00;9.00;6.00
76304;PMS7003;65111;50.536;19.204;2022-12-29T11:37:22;11.00;10.00;7.00
76304;PMS7003;65111;50.536;19.204;2022-12-29T11:40:18;11.00;11.00;9.00
76304;PMS7003;65111;50.536;19.204;2022-12-29T11:43:04;14.00;11.00;6.00
76304;PMS7003;65111;50.536;19.204;2022-12-29T11:45:33;13.00;10.50;7.00
76304;PMS7003;65111;50.536;19.204;2022-12-29T11:48:19;16.00;13.00;12.00
76304;PMS7003;65111;50.536;19.204;2022-12-29T11:50:56;21.00;20.50;13.50
76304;PMS7003;65111;50.536;19.204;2022-12-29T11:53:38;53.00;47.00;29.00
76304;PMS7003;65111;50.536;19.204;2022-12-29T11:56:06;21.00;21.00;16.00
76304;PMS7003;65111;50.536;19.204;2022-12-29T11:58:38;13.00;10.00;8.00
76304;PMS7003;65111;50.536;19.204;2022-12-29T12:04:06;18.00;16.00;12.00
76304;PMS7003;65111;50.536;19.204;2022-12-29T12:06:36;19.00;15.50;11.00
76304;PMS7003;65111;50.536;19.204;2022-12-29T12:12:05;12.00;11.00;8.00
76304;PMS7003;65111;50.536;19.204;2022-12-29T12:14:42;18.00;14.00;11.00
76304;PMS7003;65111;50.536;19.204;2022-12-29T12:25:43;14.00;9.00;8.00
76304;PMS7003;65111;50.536;19.204;2022-12-29T12:28:25;11.50;10.00;7.00
76304;PMS7003;65111;50.536;19.204;2022-12-29T12:31:16;16.00;11.00;8.00
76304;PMS7003;65111;50.536;19.204;2022-12-29T12:33:50;11.67;11.00;7.67
76304;PMS7003;65111;50.536;19.204;2022-12-29T12:39:10;18.00;15.00;11.00
76304;PMS7003;65111;50.536;19.204;2022-12-29T12:41:53;14.00;12.00;10.00
76304;PMS7003;65111;50.536;19.204;2022-12-29T12:49:59;18.00;15.00;10.00
76304;PMS7003;65111;50.536;19.204;2022-12-29T12:56:10;19.00;13.00;9.00
76304;PMS7003;65111;50.536;19.204;2022-12-29T13:07:12;11.00;8.00;5.00
76304;PMS7003;65111;50.536;19.204;2022-12-29T13:12:19;13.00;11.00;8.00
76304;PMS7003;65111;50.536;19.204;2022-12-29T13:20:31;12.00;12.00;8.00
76304;PMS7003;65111;50.536;19.204;2022-12-29T13:23:11;13.00;11.00;8.00
76304;PMS7003;65111;50.536;19.204;2022-12-29T13:28:17;12.00;12.00;8.00
76304;PMS7003;65111;50.536;19.204;2022-12-29T13:30:57;16.00;16.00;11.00
76304;PMS7003;65111;50.536;19.204;2022-12-29T13:38:48;17.50;16.50;10.00
76304;PMS7003;65111;50.536;19.204;2022-12-29T13:44:01;15.50;12.00;9.00
76304;PMS7003;65111;50.536;19.204;2022-12-29T13:46:37;17.00;16.00;8.00
76304;PMS7003;65111;50.536;19.204;2022-12-29T13:49:10;12.50;12.50;9.00
76304;PMS7003;65111;50.536;19.204;2022-12-29T13:51:47;15.00;13.50;10.00
76304;PMS7003;65111;50.536;19.204;2022-12-29T13:54:37;8.00;8.00;7.00
76304;PMS7003;65111;50.536;19.204;2022-12-29T14:00:11;5.00;5.00;4.50
76304;PMS7003;65111;50.536;19.204;2022-12-29T14:08:11;13.00;8.00;7.00
76304;PMS7003;65111;50.536;19.204;2022-12-29T14:10:46;18.00;15.50;10.00
76304;PMS7003;65111;50.536;19.204;2022-12-29T14:13:16;8.00;7.00;5.00
76304;PMS7003;65111;50.536;19.204;2022-12-29T14:23:28;13.00;13.00;9.00
76304;PMS7003;65111;50.536;19.204;2022-12-29T14:33:40;26.00;23.00;17.00
76304;PMS7003;65111;50.536;19.204;2022-12-29T14:36:36;13.00;11.00;10.00
76304;PMS7003;65111;50.536;19.204;2022-12-29T14:39:04;16.00;13.00;7.00
76304;PMS7003;65111;50.536;19.204;2022-12-29T14:41:59;17.00;16.00;10.00
76304;PMS7003;65111;50.536;19.204;2022-12-29T14:44:26;13.00;11.50;8.50
76304;PMS7003;65111;50.536;19.204;2022-12-29T14:49:20;16.00;13.00;8.00
76304;PMS7003;65111;50.536;19.204;2022-12-29T14:51:51;10.00;10.00;7.00
76304;PMS7003;65111;50.536;19.204;2022-12-29T14:59:52;10.50;10.50;6.00
76304;PMS7003;65111;50.536;19.204;2022-12-29T15:04:51;22.50;15.00;8.00
76304;PMS7003;65111;50.536;19.204;2022-12-29T15:07:23;19.00;16.00;10.00
76304;PMS7003;65111;50.536;19.204;2022-12-29T15:09:53;17.00;13.00;8.00
76304;PMS7003;65111;50.536;19.204;2022-12-29T15:15:20;19.00;16.00;10.00
76304;PMS7003;65111;50.536;19.204;2022-12-29T15:17:52;17.00;16.00;10.50
76304;PMS7003;65111;50.536;19.204;2022-12-29T15:20:31;26.33;24.00;16.33
76304;PMS7003;65111;50.536;19.204;2022-12-29T15:23:00;30.50;27.50;16.00
76304;PMS7003;65111;50.536;19.204;2022-12-29T15:28:00;24.00;21.00;16.00
76304;PMS7003;65111;50.536;19.204;2022-12-29T15:30:29;30.00;27.00;17.00
76304;PMS7003;65111;50.536;19.204;2022-12-29T15:32:55;27.00;22.50;16.00
76304;PMS7003;65111;50.536;19.204;2022-12-29T15:35:32;35.00;27.00;17.00
76304;PMS7003;65111;50.536;19.204;2022-12-29T15:38:00;37.00;29.00;18.50
76304;PMS7003;65111;50.536;19.204;2022-12-29T15:40:39;40.00;28.50;19.00
76304;PMS7003;65111;50.536;19.204;2022-12-29T15:43:09;40.00;33.00;22.00
76304;PMS7003;65111;50.536;19.204;2022-12-29T15:45:45;25.00;25.00;19.00
76304;PMS7003;65111;50.536;19.204;2022-12-29T15:48:18;32.00;28.00;18.00
76304;PMS7003;65111;50.536;19.204;2022-12-29T15:50:48;34.00;28.00;19.00
76304;PMS7003;65111;50.536;19.204;2022-12-29T15:53:29;28.00;23.00;14.00
76304;PMS7003;65111;50.536;19.204;2022-12-29T15:56:01;27.00;24.00;16.00
76304;PMS7003;65111;50.536;19.204;2022-12-29T15:58:32;28.00;25.00;15.00
76304;PMS7003;65111;50.536;19.204;2022-12-29T16:01:32;28.00;22.00;12.00
76304;PMS7003;65111;50.536;19.204;2022-12-29T16:04:00;27.50;24.50;15.50
76304;PMS7003;65111;50.536;19.204;2022-12-29T16:06:31;25.00;24.00;13.00
76304;PMS7003;65111;50.536;19.204;2022-12-29T16:09:16;31.00;26.50;17.00
76304;PMS7003;65111;50.536;19.204;2022-12-29T16:11:44;30.50;27.50;17.50
76304;PMS7003;65111;50.536;19.204;2022-12-29T16:14:19;27.00;25.00;16.00
76304;PMS7003;65111;50.536;19.204;2022-12-29T16:17:09;39.00;30.50;21.00
76304;PMS7003;65111;50.536;19.204;2022-12-29T16:19:49;34.00;30.00;22.00
76304;PMS7003;65111;50.536;19.204;2022-12-29T16:22:39;40.50;33.00;20.00
76304;PMS7003;65111;50.536;19.204;2022-12-29T16:25:17;42.00;36.00;22.00
76304;PMS7003;65111;50.536;19.204;2022-12-29T16:27:48;40.00;33.00;18.00
76304;PMS7003;65111;50.536;19.204;2022-12-29T16:32:49;32.00;28.50;22.00
76304;PMS7003;65111;50.536;19.204;2022-12-29T16:35:18;28.00;24.00;19.00
76304;PMS7003;65111;50.536;19.204;2022-12-29T16:37:46;32.00;28.00;20.00
76304;PMS7003;65111;50.536;19.204;2022-12-29T16:42:57;27.00;22.00;13.00
76304;PMS7003;65111;50.536;19.204;2022-12-29T16:48:17;38.00;18.00;13.00
76304;PMS7003;65111;50.536;19.204;2022-12-29T16:53:47;18.00;18.00;10.00
76304;PMS7003;65111;50.536;19.204;2022-12-29T16:56:17;19.50;18.50;12.00
76304;PMS7003;65111;50.536;19.204;2022-12-29T16:58:48;30.50;24.50;15.00
76304;PMS7003;65111;50.536;19.204;2022-12-29T17:01:18;31.00;25.00;16.00
76304;PMS7003;65111;50.536;19.204;2022-12-29T17:03:47;25.00;24.00;18.00
76304;PMS7003;65111;50.536;19.204;2022-12-29T17:06:20;28.00;26.00;16.00
76304;PMS7003;65111;50.536;19.204;2022-12-29T17:08:47;31.00;26.00;17.00
76304;PMS7003;65111;50.536;19.204;2022-12-29T17:16:30;24.00;24.00;13.00
76304;PMS7003;65111;50.536;19.204;2022-12-29T17:18:56;25.00;21.50;15.50
76304;PMS7003;65111;50.536;19.204;2022-12-29T17:21:22;28.00;23.00;16.00
76304;PMS7003;65111;50.536;19.204;2022-12-29T17:23:48;16.00;16.00;12.00
76304;PMS7003;65111;50.536;19.204;2022-12-29T17:26:14;38.00;36.00;21.00
76304;PMS7003;65111;50.536;19.204;2022-12-29T17:28:40;46.50;42.00;23.50
76304;PMS7003;65111;50.536;19.204;2022-12-29T17:31:08;41.50;39.00;22.00
76304;PMS7003;65111;50.536;19.204;2022-12-29T17:33:36;37.50;36.00;24.00
76304;PMS7003;65111;50.536;19.204;2022-12-29T17:36:04;26.00;26.00;18.00
76304;PMS7003;65111;50.536;19.204;2022-12-29T17:38:33;39.00;36.00;22.00
76304;PMS7003;65111;50.536;19.204;2022-12-29T17:41:00;38.00;34.00;19.00
76304;PMS7003;65111;50.536;19.204;2022-12-29T17:43:26;29.50;24.00;14.00
76304;PMS7003;65111;50.536;19.204;2022-12-29T17:45:53;33.00;27.00;16.00
76304;PMS7003;65111;50.536;19.204;2022-12-29T17:48:21;36.00;31.00;19.00
76304;PMS7003;65111;50.536;19.204;2022-12-29T17:50:48;29.00;28.00;20.00
76304;PMS7003;65111;50.536;19.204;2022-12-29T17:53:20;32.00;29.00;17.00